sensor_id;sensor_type;location;lat;lon;timestamp;P1;durP1;ratioP1;P2;durP2;ratioP2
11315;SDS011;5713;50.774;0.256;2022-07-23T00:01:42;6.47;;;3.70;;
11315;SDS011;5713;50.774;0.256;2022-07-23T00:04:08;5.07;;;3.58;;
11315;SDS011;5713;50.774;0.256;2022-07-23T00:06:34;5.25;;;3.35;;
11315;SDS011;5713;50.774;0.256;2022-07-23T00:09:00;6.32;;;3.45;;
11315;SDS011;5713;50.774;0.256;2022-07-23T00:11:26;4.77;;;3.40;;
11315;SDS011;5713;50.774;0.256;2022-07-23T00:13:52;7.07;;;3.90;;
11315;SDS011;5713;50.774;0.256;2022-07-23T00:16:20;5.95;;;3.35;;
11315;SDS011;5713;50.774;0.256;2022-07-23T00:18:46;7.68;;;3.88;;
11315;SDS011;5713;50.774;0.256;2022-07-23T00:21:12;5.93;;;3.60;;
11315;SDS011;5713;50.774;0.256;2022-07-23T00:23:38;8.45;;;3.60;;
11315;SDS011;5713;50.774;0.256;2022-07-23T00:26:04;5.90;;;3.92;;
11315;SDS011;5713;50.774;0.256;2022-07-23T00:28:32;5.28;;;3.65;;
11315;SDS011;5713;50.774;0.256;2022-07-23T00:30:59;5.17;;;3.50;;
11315;SDS011;5713;50.774;0.256;2022-07-23T00:33:25;5.55;;;3.50;;
11315;SDS011;5713;50.774;0.256;2022-07-23T00:35:51;6.35;;;3.60;;
11315;SDS011;5713;50.774;0.256;2022-07-23T00:38:17;6.27;;;3.70;;
11315;SDS011;5713;50.774;0.256;2022-07-23T00:40:43;5.40;;;3.67;;
11315;SDS011;5713;50.774;0.256;2022-07-23T00:43:09;5.75;;;3.78;;
11315;SDS011;5713;50.774;0.256;2022-07-23T00:45:35;5.93;;;3.55;;
11315;SDS011;5713;50.774;0.256;2022-07-23T00:48:02;7.10;;;3.60;;
11315;SDS011;5713;50.774;0.256;2022-07-23T00:50:28;6.87;;;3.90;;
11315;SDS011;5713;50.774;0.256;2022-07-23T00:52:54;5.25;;;3.60;;
11315;SDS011;5713;50.774;0.256;2022-07-23T00:55:21;6.22;;;3.60;;
11315;SDS011;5713;50.774;0.256;2022-07-23T00:57:47;7.18;;;3.58;;
11315;SDS011;5713;50.774;0.256;2022-07-23T01:00:14;6.80;;;3.70;;
11315;SDS011;5713;50.774;0.256;2022-07-23T01:02:40;6.40;;;3.80;;
11315;SDS011;5713;50.774;0.256;2022-07-23T01:05:07;5.60;;;3.60;;
11315;SDS011;5713;50.774;0.256;2022-07-23T01:07:33;6.40;;;3.80;;
11315;SDS011;5713;50.774;0.256;2022-07-23T01:10:00;6.65;;;3.80;;
11315;SDS011;5713;50.774;0.256;2022-07-23T01:12:26;5.82;;;3.70;;
11315;SDS011;5713;50.774;0.256;2022-07-23T01:14:56;6.00;;;3.77;;
11315;SDS011;5713;50.774;0.256;2022-07-23T01:17:22;5.35;;;3.80;;
11315;SDS011;5713;50.774;0.256;2022-07-23T01:19:48;5.05;;;3.50;;
11315;SDS011;5713;50.774;0.256;2022-07-23T01:22:15;9.38;;;4.40;;
11315;SDS011;5713;50.774;0.256;2022-07-23T01:24:43;7.25;;;3.90;;
11315;SDS011;5713;50.774;0.256;2022-07-23T01:27:09;6.38;;;3.80;;
11315;SDS011;5713;50.774;0.256;2022-07-23T01:29:37;6.75;;;3.92;;
11315;SDS011;5713;50.774;0.256;2022-07-23T01:32:04;6.93;;;3.63;;
11315;SDS011;5713;50.774;0.256;2022-07-23T01:34:30;5.10;;;3.58;;
11315;SDS011;5713;50.774;0.256;2022-07-23T01:36:56;5.63;;;3.83;;
11315;SDS011;5713;50.774;0.256;2022-07-23T01:39:22;6.22;;;4.18;;
11315;SDS011;5713;50.774;0.256;2022-07-23T01:41:48;6.57;;;4.00;;
11315;SDS011;5713;50.774;0.256;2022-07-23T01:44:15;8.48;;;3.97;;
11315;SDS011;5713;50.774;0.256;2022-07-23T01:46:41;6.13;;;3.95;;
11315;SDS011;5713;50.774;0.256;2022-07-23T01:49:07;6.97;;;4.30;;
11315;SDS011;5713;50.774;0.256;2022-07-23T01:51:34;6.25;;;4.03;;
11315;SDS011;5713;50.774;0.256;2022-07-23T01:54:00;6.55;;;3.85;;
11315;SDS011;5713;50.774;0.256;2022-07-23T01:56:26;7.03;;;4.25;;
11315;SDS011;5713;50.774;0.256;2022-07-23T01:58:52;7.25;;;4.10;;
11315;SDS011;5713;50.774;0.256;2022-07-23T02:01:18;7.50;;;4.10;;
11315;SDS011;5713;50.774;0.256;2022-07-23T02:03:44;7.10;;;4.23;;
11315;SDS011;5713;50.774;0.256;2022-07-23T02:06:10;6.75;;;4.20;;
11315;SDS011;5713;50.774;0.256;2022-07-23T02:08:36;8.23;;;4.28;;
11315;SDS011;5713;50.774;0.256;2022-07-23T02:11:02;7.97;;;4.20;;
11315;SDS011;5713;50.774;0.256;2022-07-23T02:13:29;6.13;;;4.40;;
11315;SDS011;5713;50.774;0.256;2022-07-23T02:15:55;5.82;;;4.30;;
11315;SDS011;5713;50.774;0.256;2022-07-23T02:18:21;7.93;;;4.30;;
11315;SDS011;5713;50.774;0.256;2022-07-23T02:20:47;6.10;;;4.40;;
11315;SDS011;5713;50.774;0.256;2022-07-23T02:23:13;6.80;;;4.40;;
11315;SDS011;5713;50.774;0.256;2022-07-23T02:25:39;7.55;;;4.70;;
11315;SDS011;5713;50.774;0.256;2022-07-23T02:28:05;6.60;;;4.40;;
11315;SDS011;5713;50.774;0.256;2022-07-23T02:30:32;5.72;;;4.28;;
11315;SDS011;5713;50.774;0.256;2022-07-23T02:32:58;6.68;;;4.30;;
11315;SDS011;5713;50.774;0.256;2022-07-23T02:35:24;6.95;;;4.28;;
11315;SDS011;5713;50.774;0.256;2022-07-23T02:37:50;7.43;;;4.75;;
11315;SDS011;5713;50.774;0.256;2022-07-23T02:40:17;7.88;;;4.40;;
11315;SDS011;5713;50.774;0.256;2022-07-23T02:42:43;6.90;;;4.68;;
11315;SDS011;5713;50.774;0.256;2022-07-23T02:45:09;9.30;;;4.50;;
11315;SDS011;5713;50.774;0.256;2022-07-23T02:47:35;6.85;;;4.65;;
11315;SDS011;5713;50.774;0.256;2022-07-23T02:50:02;6.68;;;4.30;;
11315;SDS011;5713;50.774;0.256;2022-07-23T02:52:30;6.78;;;4.40;;
11315;SDS011;5713;50.774;0.256;2022-07-23T02:54:56;7.00;;;4.43;;
11315;SDS011;5713;50.774;0.256;2022-07-23T02:57:22;6.60;;;4.40;;
11315;SDS011;5713;50.774;0.256;2022-07-23T02:59:48;5.97;;;4.20;;
11315;SDS011;5713;50.774;0.256;2022-07-23T03:02:14;7.22;;;4.40;;
11315;SDS011;5713;50.774;0.256;2022-07-23T03:04:40;7.28;;;4.10;;
11315;SDS011;5713;50.774;0.256;2022-07-23T03:07:07;8.02;;;4.40;;
11315;SDS011;5713;50.774;0.256;2022-07-23T03:09:33;8.85;;;4.15;;
11315;SDS011;5713;50.774;0.256;2022-07-23T03:12:00;8.63;;;4.68;;
11315;SDS011;5713;50.774;0.256;2022-07-23T03:14:26;6.70;;;4.32;;
11315;SDS011;5713;50.774;0.256;2022-07-23T03:16:52;5.60;;;3.92;;
11315;SDS011;5713;50.774;0.256;2022-07-23T03:19:19;8.30;;;4.45;;
11315;SDS011;5713;50.774;0.256;2022-07-23T03:21:45;6.90;;;4.07;;
11315;SDS011;5713;50.774;0.256;2022-07-23T03:24:11;7.43;;;4.22;;
11315;SDS011;5713;50.774;0.256;2022-07-23T03:26:38;9.68;;;4.47;;
11315;SDS011;5713;50.774;0.256;2022-07-23T03:29:04;8.93;;;4.25;;
11315;SDS011;5713;50.774;0.256;2022-07-23T03:31:31;5.65;;;4.05;;
11315;SDS011;5713;50.774;0.256;2022-07-23T03:33:57;5.85;;;4.18;;
11315;SDS011;5713;50.774;0.256;2022-07-23T03:36:23;8.10;;;4.57;;
11315;SDS011;5713;50.774;0.256;2022-07-23T03:38:49;6.28;;;4.22;;
11315;SDS011;5713;50.774;0.256;2022-07-23T03:41:16;7.95;;;4.30;;
11315;SDS011;5713;50.774;0.256;2022-07-23T03:43:42;5.40;;;4.00;;
11315;SDS011;5713;50.774;0.256;2022-07-23T03:46:08;7.38;;;4.00;;
11315;SDS011;5713;50.774;0.256;2022-07-23T03:48:34;5.00;;;3.70;;
11315;SDS011;5713;50.774;0.256;2022-07-23T03:51:01;6.85;;;4.07;;
11315;SDS011;5713;50.774;0.256;2022-07-23T03:53:27;7.13;;;3.83;;
11315;SDS011;5713;50.774;0.256;2022-07-23T03:55:53;6.45;;;3.75;;
11315;SDS011;5713;50.774;0.256;2022-07-23T03:58:19;6.78;;;3.60;;
11315;SDS011;5713;50.774;0.256;2022-07-23T04:00:45;6.32;;;4.00;;
11315;SDS011;5713;50.774;0.256;2022-07-23T04:03:11;9.70;;;3.60;;
11315;SDS011;5713;50.774;0.256;2022-07-23T04:05:38;6.30;;;3.90;;
11315;SDS011;5713;50.774;0.256;2022-07-23T04:08:04;5.00;;;3.80;;
11315;SDS011;5713;50.774;0.256;2022-07-23T04:10:30;6.35;;;3.90;;
11315;SDS011;5713;50.774;0.256;2022-07-23T04:12:56;5.32;;;3.38;;
11315;SDS011;5713;50.774;0.256;2022-07-23T04:15:22;5.03;;;3.60;;
11315;SDS011;5713;50.774;0.256;2022-07-23T04:17:48;7.05;;;3.75;;
11315;SDS011;5713;50.774;0.256;2022-07-23T04:20:14;5.93;;;3.63;;
11315;SDS011;5713;50.774;0.256;2022-07-23T04:22:41;6.55;;;3.80;;
11315;SDS011;5713;50.774;0.256;2022-07-23T04:25:07;5.90;;;3.55;;
11315;SDS011;5713;50.774;0.256;2022-07-23T04:27:33;5.85;;;3.75;;
11315;SDS011;5713;50.774;0.256;2022-07-23T04:29:59;6.95;;;3.80;;
11315;SDS011;5713;50.774;0.256;2022-07-23T04:32:26;5.95;;;3.80;;
11315;SDS011;5713;50.774;0.256;2022-07-23T04:34:52;5.55;;;3.60;;
11315;SDS011;5713;50.774;0.256;2022-07-23T04:37:18;6.47;;;3.70;;
11315;SDS011;5713;50.774;0.256;2022-07-23T04:39:44;6.00;;;3.65;;
11315;SDS011;5713;50.774;0.256;2022-07-23T04:42:10;4.50;;;3.50;;
11315;SDS011;5713;50.774;0.256;2022-07-23T04:44:36;5.93;;;3.40;;
11315;SDS011;5713;50.774;0.256;2022-07-23T04:47:02;5.75;;;3.47;;
11315;SDS011;5713;50.774;0.256;2022-07-23T04:49:29;6.38;;;3.80;;
11315;SDS011;5713;50.774;0.256;2022-07-23T04:51:55;6.82;;;3.60;;
11315;SDS011;5713;50.774;0.256;2022-07-23T04:54:21;5.03;;;3.70;;
11315;SDS011;5713;50.774;0.256;2022-07-23T04:56:47;5.72;;;3.70;;
11315;SDS011;5713;50.774;0.256;2022-07-23T04:59:13;4.30;;;3.40;;
11315;SDS011;5713;50.774;0.256;2022-07-23T05:01:39;4.63;;;3.63;;
11315;SDS011;5713;50.774;0.256;2022-07-23T05:04:06;5.85;;;3.97;;
11315;SDS011;5713;50.774;0.256;2022-07-23T05:06:33;5.82;;;3.70;;
11315;SDS011;5713;50.774;0.256;2022-07-23T05:08:59;6.05;;;3.80;;
11315;SDS011;5713;50.774;0.256;2022-07-23T05:11:25;6.32;;;3.85;;
11315;SDS011;5713;50.774;0.256;2022-07-23T05:13:51;5.82;;;4.00;;
11315;SDS011;5713;50.774;0.256;2022-07-23T05:16:17;6.22;;;4.00;;
11315;SDS011;5713;50.774;0.256;2022-07-23T05:18:43;6.38;;;4.05;;
11315;SDS011;5713;50.774;0.256;2022-07-23T05:21:10;5.57;;;3.97;;
11315;SDS011;5713;50.774;0.256;2022-07-23T05:23:36;7.20;;;4.20;;
11315;SDS011;5713;50.774;0.256;2022-07-23T05:26:02;6.22;;;4.05;;
11315;SDS011;5713;50.774;0.256;2022-07-23T05:28:28;6.07;;;4.07;;
11315;SDS011;5713;50.774;0.256;2022-07-23T05:30:54;7.07;;;4.28;;
11315;SDS011;5713;50.774;0.256;2022-07-23T05:33:20;8.13;;;4.97;;
11315;SDS011;5713;50.774;0.256;2022-07-23T05:35:46;6.32;;;4.47;;
11315;SDS011;5713;50.774;0.256;2022-07-23T05:38:13;7.85;;;4.70;;
11315;SDS011;5713;50.774;0.256;2022-07-23T05:40:39;6.55;;;4.18;;
11315;SDS011;5713;50.774;0.256;2022-07-23T05:43:05;6.10;;;4.35;;
11315;SDS011;5713;50.774;0.256;2022-07-23T05:45:31;8.10;;;5.03;;
11315;SDS011;5713;50.774;0.256;2022-07-23T05:47:57;7.30;;;4.93;;
11315;SDS011;5713;50.774;0.256;2022-07-23T05:50:23;7.95;;;5.13;;
11315;SDS011;5713;50.774;0.256;2022-07-23T05:52:49;7.67;;;4.97;;
11315;SDS011;5713;50.774;0.256;2022-07-23T05:55:15;9.95;;;4.93;;
11315;SDS011;5713;50.774;0.256;2022-07-23T05:57:42;8.35;;;4.50;;
11315;SDS011;5713;50.774;0.256;2022-07-23T06:00:08;11.10;;;4.90;;
11315;SDS011;5713;50.774;0.256;2022-07-23T06:02:35;7.70;;;4.47;;
11315;SDS011;5713;50.774;0.256;2022-07-23T06:05:01;9.18;;;4.80;;
11315;SDS011;5713;50.774;0.256;2022-07-23T06:07:27;7.25;;;4.57;;
11315;SDS011;5713;50.774;0.256;2022-07-23T06:09:54;7.45;;;4.47;;
11315;SDS011;5713;50.774;0.256;2022-07-23T06:12:20;7.03;;;4.38;;
11315;SDS011;5713;50.774;0.256;2022-07-23T06:14:46;9.10;;;4.40;;
11315;SDS011;5713;50.774;0.256;2022-07-23T06:17:14;8.25;;;4.40;;
11315;SDS011;5713;50.774;0.256;2022-07-23T06:19:40;7.05;;;4.43;;
11315;SDS011;5713;50.774;0.256;2022-07-23T06:22:07;7.68;;;4.20;;
11315;SDS011;5713;50.774;0.256;2022-07-23T06:24:33;7.95;;;4.53;;
11315;SDS011;5713;50.774;0.256;2022-07-23T06:26:59;7.63;;;4.50;;
11315;SDS011;5713;50.774;0.256;2022-07-23T06:29:25;7.35;;;4.78;;
11315;SDS011;5713;50.774;0.256;2022-07-23T06:31:51;7.10;;;4.30;;
11315;SDS011;5713;50.774;0.256;2022-07-23T06:34:17;5.70;;;4.43;;
11315;SDS011;5713;50.774;0.256;2022-07-23T06:36:43;7.20;;;4.68;;
11315;SDS011;5713;50.774;0.256;2022-07-23T06:39:09;6.63;;;4.38;;
11315;SDS011;5713;50.774;0.256;2022-07-23T06:41:36;6.97;;;4.68;;
11315;SDS011;5713;50.774;0.256;2022-07-23T06:44:02;5.22;;;4.10;;
11315;SDS011;5713;50.774;0.256;2022-07-23T06:46:28;7.88;;;4.50;;
11315;SDS011;5713;50.774;0.256;2022-07-23T06:48:54;6.55;;;4.18;;
11315;SDS011;5713;50.774;0.256;2022-07-23T06:51:20;5.82;;;3.90;;
11315;SDS011;5713;50.774;0.256;2022-07-23T06:53:47;6.55;;;4.13;;
11315;SDS011;5713;50.774;0.256;2022-07-23T06:56:13;7.10;;;4.25;;
11315;SDS011;5713;50.774;0.256;2022-07-23T06:58:39;7.20;;;4.13;;
11315;SDS011;5713;50.774;0.256;2022-07-23T07:01:05;5.72;;;4.00;;
11315;SDS011;5713;50.774;0.256;2022-07-23T07:03:31;4.47;;;3.90;;
11315;SDS011;5713;50.774;0.256;2022-07-23T07:05:57;5.00;;;4.00;;
11315;SDS011;5713;50.774;0.256;2022-07-23T07:08:23;6.00;;;4.03;;
11315;SDS011;5713;50.774;0.256;2022-07-23T07:10:50;5.13;;;3.80;;
11315;SDS011;5713;50.774;0.256;2022-07-23T07:13:16;4.45;;;3.85;;
11315;SDS011;5713;50.774;0.256;2022-07-23T07:15:42;5.95;;;3.80;;
11315;SDS011;5713;50.774;0.256;2022-07-23T07:18:08;5.22;;;3.90;;
11315;SDS011;5713;50.774;0.256;2022-07-23T07:20:34;6.38;;;4.10;;
11315;SDS011;5713;50.774;0.256;2022-07-23T07:23:01;5.88;;;3.78;;
11315;SDS011;5713;50.774;0.256;2022-07-23T07:25:27;8.18;;;4.13;;
11315;SDS011;5713;50.774;0.256;2022-07-23T07:27:53;6.15;;;3.92;;
11315;SDS011;5713;50.774;0.256;2022-07-23T07:30:19;5.45;;;3.95;;
11315;SDS011;5713;50.774;0.256;2022-07-23T07:32:45;5.77;;;3.90;;
11315;SDS011;5713;50.774;0.256;2022-07-23T07:35:11;5.97;;;4.00;;
11315;SDS011;5713;50.774;0.256;2022-07-23T07:37:38;5.45;;;3.95;;
11315;SDS011;5713;50.774;0.256;2022-07-23T07:40:04;5.35;;;3.92;;
11315;SDS011;5713;50.774;0.256;2022-07-23T07:42:30;5.68;;;3.83;;
11315;SDS011;5713;50.774;0.256;2022-07-23T07:44:57;6.43;;;4.00;;
11315;SDS011;5713;50.774;0.256;2022-07-23T07:47:23;6.90;;;4.05;;
11315;SDS011;5713;50.774;0.256;2022-07-23T07:49:49;5.97;;;3.80;;
11315;SDS011;5713;50.774;0.256;2022-07-23T07:52:16;5.17;;;3.70;;
11315;SDS011;5713;50.774;0.256;2022-07-23T07:54:42;6.20;;;4.00;;
11315;SDS011;5713;50.774;0.256;2022-07-23T07:57:08;6.32;;;4.10;;
11315;SDS011;5713;50.774;0.256;2022-07-23T07:59:34;5.53;;;3.88;;
11315;SDS011;5713;50.774;0.256;2022-07-23T08:02:01;5.75;;;3.88;;
11315;SDS011;5713;50.774;0.256;2022-07-23T08:04:27;5.72;;;3.90;;
11315;SDS011;5713;50.774;0.256;2022-07-23T08:06:53;6.30;;;4.10;;
11315;SDS011;5713;50.774;0.256;2022-07-23T08:09:19;5.40;;;3.80;;
11315;SDS011;5713;50.774;0.256;2022-07-23T08:11:45;6.40;;;4.00;;
11315;SDS011;5713;50.774;0.256;2022-07-23T08:14:12;6.75;;;3.95;;
11315;SDS011;5713;50.774;0.256;2022-07-23T08:16:38;5.22;;;4.00;;
11315;SDS011;5713;50.774;0.256;2022-07-23T08:19:04;6.03;;;4.00;;
11315;SDS011;5713;50.774;0.256;2022-07-23T08:21:30;6.22;;;3.97;;
11315;SDS011;5713;50.774;0.256;2022-07-23T08:23:56;7.10;;;4.03;;
11315;SDS011;5713;50.774;0.256;2022-07-23T08:26:23;6.05;;;4.10;;
11315;SDS011;5713;50.774;0.256;2022-07-23T08:28:49;6.72;;;3.80;;
11315;SDS011;5713;50.774;0.256;2022-07-23T08:31:15;5.85;;;3.67;;
11315;SDS011;5713;50.774;0.256;2022-07-23T08:33:42;7.53;;;4.00;;
11315;SDS011;5713;50.774;0.256;2022-07-23T08:36:08;5.32;;;3.90;;
11315;SDS011;5713;50.774;0.256;2022-07-23T08:38:34;4.82;;;3.40;;
11315;SDS011;5713;50.774;0.256;2022-07-23T08:41:01;5.65;;;3.80;;
11315;SDS011;5713;50.774;0.256;2022-07-23T08:43:30;5.03;;;3.55;;
11315;SDS011;5713;50.774;0.256;2022-07-23T08:45:57;5.80;;;3.42;;
11315;SDS011;5713;50.774;0.256;2022-07-23T08:48:24;4.43;;;3.40;;
11315;SDS011;5713;50.774;0.256;2022-07-23T08:50:52;6.28;;;3.50;;
11315;SDS011;5713;50.774;0.256;2022-07-23T08:53:19;4.97;;;3.80;;
11315;SDS011;5713;50.774;0.256;2022-07-23T08:55:47;5.13;;;3.53;;
11315;SDS011;5713;50.774;0.256;2022-07-23T08:58:13;5.70;;;3.50;;
11315;SDS011;5713;50.774;0.256;2022-07-23T09:00:39;4.57;;;3.45;;
11315;SDS011;5713;50.774;0.256;2022-07-23T09:03:06;7.03;;;4.00;;
11315;SDS011;5713;50.774;0.256;2022-07-23T09:05:32;4.70;;;3.78;;
11315;SDS011;5713;50.774;0.256;2022-07-23T09:10:36;5.07;;;3.58;;
11315;SDS011;5713;50.774;0.256;2022-07-23T09:13:22;6.55;;;3.90;;
11315;SDS011;5713;50.774;0.256;2022-07-23T09:15:49;6.47;;;3.50;;
11315;SDS011;5713;50.774;0.256;2022-07-23T09:18:16;4.68;;;3.42;;
11315;SDS011;5713;50.774;0.256;2022-07-23T09:20:45;6.25;;;3.67;;
11315;SDS011;5713;50.774;0.256;2022-07-23T09:23:11;7.07;;;3.88;;
11315;SDS011;5713;50.774;0.256;2022-07-23T09:25:37;5.80;;;3.70;;
11315;SDS011;5713;50.774;0.256;2022-07-23T09:28:04;5.35;;;3.50;;
11315;SDS011;5713;50.774;0.256;2022-07-23T09:30:32;4.82;;;3.38;;
11315;SDS011;5713;50.774;0.256;2022-07-23T09:35:52;6.05;;;3.50;;
11315;SDS011;5713;50.774;0.256;2022-07-23T09:38:22;4.65;;;3.38;;
11315;SDS011;5713;50.774;0.256;2022-07-23T09:41:07;5.55;;;3.22;;
11315;SDS011;5713;50.774;0.256;2022-07-23T09:43:34;6.40;;;3.45;;
11315;SDS011;5713;50.774;0.256;2022-07-23T09:48:45;4.70;;;3.35;;
11315;SDS011;5713;50.774;0.256;2022-07-23T09:51:13;5.82;;;3.70;;
11315;SDS011;5713;50.774;0.256;2022-07-23T09:54:00;6.53;;;3.78;;
11315;SDS011;5713;50.774;0.256;2022-07-23T09:56:27;4.50;;;3.30;;
11315;SDS011;5713;50.774;0.256;2022-07-23T09:58:54;5.90;;;3.60;;
11315;SDS011;5713;50.774;0.256;2022-07-23T10:01:31;6.23;;;3.20;;
11315;SDS011;5713;50.774;0.256;2022-07-23T10:03:58;5.55;;;3.70;;
11315;SDS011;5713;50.774;0.256;2022-07-23T10:06:24;6.93;;;3.78;;
11315;SDS011;5713;50.774;0.256;2022-07-23T10:08:50;6.70;;;3.70;;
11315;SDS011;5713;50.774;0.256;2022-07-23T10:11:16;7.88;;;3.90;;
11315;SDS011;5713;50.774;0.256;2022-07-23T10:13:43;6.22;;;3.70;;
11315;SDS011;5713;50.774;0.256;2022-07-23T10:16:20;5.40;;;3.35;;
11315;SDS011;5713;50.774;0.256;2022-07-23T10:18:47;7.20;;;3.70;;
11315;SDS011;5713;50.774;0.256;2022-07-23T10:21:16;7.68;;;4.07;;
11315;SDS011;5713;50.774;0.256;2022-07-23T10:23:50;5.55;;;3.45;;
11315;SDS011;5713;50.774;0.256;2022-07-23T10:26:18;5.50;;;3.60;;
11315;SDS011;5713;50.774;0.256;2022-07-23T10:29:00;11.48;;;4.05;;
11315;SDS011;5713;50.774;0.256;2022-07-23T10:33:56;6.68;;;3.72;;
11315;SDS011;5713;50.774;0.256;2022-07-23T10:39:13;6.90;;;3.90;;
11315;SDS011;5713;50.774;0.256;2022-07-23T10:41:41;8.23;;;4.15;;
11315;SDS011;5713;50.774;0.256;2022-07-23T10:44:15;7.75;;;4.10;;
11315;SDS011;5713;50.774;0.256;2022-07-23T10:46:57;6.77;;;4.13;;
11315;SDS011;5713;50.774;0.256;2022-07-23T10:49:27;7.65;;;4.20;;
11315;SDS011;5713;50.774;0.256;2022-07-23T10:54:46;6.07;;;3.92;;
11315;SDS011;5713;50.774;0.256;2022-07-23T10:57:14;6.75;;;4.10;;
11315;SDS011;5713;50.774;0.256;2022-07-23T11:02:27;6.70;;;4.00;;
11315;SDS011;5713;50.774;0.256;2022-07-23T11:04:54;6.60;;;3.85;;
11315;SDS011;5713;50.774;0.256;2022-07-23T11:07:20;6.22;;;3.80;;
11315;SDS011;5713;50.774;0.256;2022-07-23T11:09:46;5.80;;;3.65;;
11315;SDS011;5713;50.774;0.256;2022-07-23T11:17:23;6.25;;;3.60;;
11315;SDS011;5713;50.774;0.256;2022-07-23T11:22:40;7.80;;;4.53;;
11315;SDS011;5713;50.774;0.256;2022-07-23T11:25:12;8.07;;;4.53;;
11315;SDS011;5713;50.774;0.256;2022-07-23T11:27:39;10.45;;;5.10;;
11315;SDS011;5713;50.774;0.256;2022-07-23T11:30:10;7.13;;;4.25;;
11315;SDS011;5713;50.774;0.256;2022-07-23T11:32:37;6.78;;;4.18;;
11315;SDS011;5713;50.774;0.256;2022-07-23T11:35:21;8.40;;;4.20;;
11315;SDS011;5713;50.774;0.256;2022-07-23T11:37:47;6.10;;;4.00;;
11315;SDS011;5713;50.774;0.256;2022-07-23T11:40:15;7.40;;;4.20;;
11315;SDS011;5713;50.774;0.256;2022-07-23T11:42:55;9.25;;;4.13;;
11315;SDS011;5713;50.774;0.256;2022-07-23T11:45:22;11.30;;;4.37;;
11315;SDS011;5713;50.774;0.256;2022-07-23T11:47:51;23.80;;;4.78;;
11315;SDS011;5713;50.774;0.256;2022-07-23T11:50:17;16.92;;;5.05;;
11315;SDS011;5713;50.774;0.256;2022-07-23T11:52:43;13.20;;;4.50;;
11315;SDS011;5713;50.774;0.256;2022-07-23T11:55:10;8.43;;;4.28;;
11315;SDS011;5713;50.774;0.256;2022-07-23T11:57:38;12.23;;;4.10;;
11315;SDS011;5713;50.774;0.256;2022-07-23T12:00:06;6.72;;;3.83;;
11315;SDS011;5713;50.774;0.256;2022-07-23T12:02:33;6.68;;;4.00;;
11315;SDS011;5713;50.774;0.256;2022-07-23T12:04:59;29.38;;;5.63;;
11315;SDS011;5713;50.774;0.256;2022-07-23T12:09:58;8.52;;;4.10;;
11315;SDS011;5713;50.774;0.256;2022-07-23T12:12:25;8.13;;;4.10;;
11315;SDS011;5713;50.774;0.256;2022-07-23T12:14:53;12.13;;;4.35;;
11315;SDS011;5713;50.774;0.256;2022-07-23T12:17:20;8.80;;;3.95;;
11315;SDS011;5713;50.774;0.256;2022-07-23T12:19:46;6.50;;;4.53;;
11315;SDS011;5713;50.774;0.256;2022-07-23T12:22:13;7.50;;;4.30;;
11315;SDS011;5713;50.774;0.256;2022-07-23T12:27:38;8.35;;;4.32;;
11315;SDS011;5713;50.774;0.256;2022-07-23T12:33:03;7.03;;;4.10;;
11315;SDS011;5713;50.774;0.256;2022-07-23T12:35:48;5.37;;;3.87;;
11315;SDS011;5713;50.774;0.256;2022-07-23T12:38:18;6.55;;;4.00;;
11315;SDS011;5713;50.774;0.256;2022-07-23T12:43:32;6.68;;;3.72;;
11315;SDS011;5713;50.774;0.256;2022-07-23T12:46:16;7.22;;;3.63;;
11315;SDS011;5713;50.774;0.256;2022-07-23T12:53:58;6.68;;;3.83;;
11315;SDS011;5713;50.774;0.256;2022-07-23T12:56:35;6.50;;;3.80;;
11315;SDS011;5713;50.774;0.256;2022-07-23T13:01:41;7.60;;;3.60;;
11315;SDS011;5713;50.774;0.256;2022-07-23T13:04:09;7.10;;;3.85;;
11315;SDS011;5713;50.774;0.256;2022-07-23T13:06:36;5.32;;;3.00;;
11315;SDS011;5713;50.774;0.256;2022-07-23T13:09:03;7.10;;;3.50;;
11315;SDS011;5713;50.774;0.256;2022-07-23T13:11:29;5.80;;;3.40;;
11315;SDS011;5713;50.774;0.256;2022-07-23T13:13:56;6.43;;;3.83;;
11315;SDS011;5713;50.774;0.256;2022-07-23T13:16:22;6.95;;;3.60;;
11315;SDS011;5713;50.774;0.256;2022-07-23T13:18:48;8.70;;;3.67;;
11315;SDS011;5713;50.774;0.256;2022-07-23T13:21:15;6.82;;;3.47;;
11315;SDS011;5713;50.774;0.256;2022-07-23T13:23:41;7.10;;;3.72;;
11315;SDS011;5713;50.774;0.256;2022-07-23T13:26:08;7.00;;;4.13;;
11315;SDS011;5713;50.774;0.256;2022-07-23T13:28:34;6.53;;;3.50;;
11315;SDS011;5713;50.774;0.256;2022-07-23T13:31:00;5.80;;;3.72;;
11315;SDS011;5713;50.774;0.256;2022-07-23T13:33:29;5.75;;;3.63;;
11315;SDS011;5713;50.774;0.256;2022-07-23T13:35:55;7.18;;;3.70;;
11315;SDS011;5713;50.774;0.256;2022-07-23T13:38:22;5.57;;;3.72;;
11315;SDS011;5713;50.774;0.256;2022-07-23T13:40:48;7.97;;;3.90;;
11315;SDS011;5713;50.774;0.256;2022-07-23T13:43:15;5.78;;;3.53;;
11315;SDS011;5713;50.774;0.256;2022-07-23T13:45:42;6.45;;;3.45;;
11315;SDS011;5713;50.774;0.256;2022-07-23T13:48:09;7.25;;;3.80;;
11315;SDS011;5713;50.774;0.256;2022-07-23T13:50:36;13.10;;;4.10;;
11315;SDS011;5713;50.774;0.256;2022-07-23T13:53:03;7.55;;;4.00;;
11315;SDS011;5713;50.774;0.256;2022-07-23T13:55:30;7.28;;;4.55;;
11315;SDS011;5713;50.774;0.256;2022-07-23T13:57:56;8.33;;;4.10;;
11315;SDS011;5713;50.774;0.256;2022-07-23T14:00:22;7.25;;;4.43;;
11315;SDS011;5713;50.774;0.256;2022-07-23T14:02:49;8.75;;;4.00;;
11315;SDS011;5713;50.774;0.256;2022-07-23T14:05:15;7.70;;;4.70;;
11315;SDS011;5713;50.774;0.256;2022-07-23T14:07:41;6.97;;;4.00;;
11315;SDS011;5713;50.774;0.256;2022-07-23T14:10:09;10.27;;;4.30;;
11315;SDS011;5713;50.774;0.256;2022-07-23T14:12:36;7.55;;;4.20;;
11315;SDS011;5713;50.774;0.256;2022-07-23T14:15:03;8.25;;;4.00;;
11315;SDS011;5713;50.774;0.256;2022-07-23T14:17:29;8.18;;;4.65;;
11315;SDS011;5713;50.774;0.256;2022-07-23T14:19:56;7.47;;;4.32;;
11315;SDS011;5713;50.774;0.256;2022-07-23T14:22:23;6.90;;;4.18;;
11315;SDS011;5713;50.774;0.256;2022-07-23T14:24:49;7.65;;;3.85;;
11315;SDS011;5713;50.774;0.256;2022-07-23T14:27:15;8.50;;;3.70;;
11315;SDS011;5713;50.774;0.256;2022-07-23T14:29:41;7.47;;;3.70;;
11315;SDS011;5713;50.774;0.256;2022-07-23T14:32:10;6.70;;;3.70;;
11315;SDS011;5713;50.774;0.256;2022-07-23T14:34:36;6.68;;;3.60;;
11315;SDS011;5713;50.774;0.256;2022-07-23T14:37:03;7.57;;;3.60;;
11315;SDS011;5713;50.774;0.256;2022-07-23T14:39:29;7.88;;;3.50;;
11315;SDS011;5713;50.774;0.256;2022-07-23T14:41:55;6.32;;;3.50;;
11315;SDS011;5713;50.774;0.256;2022-07-23T14:44:21;6.80;;;3.28;;
11315;SDS011;5713;50.774;0.256;2022-07-23T14:46:48;6.28;;;3.50;;
11315;SDS011;5713;50.774;0.256;2022-07-23T14:49:14;6.13;;;3.38;;
11315;SDS011;5713;50.774;0.256;2022-07-23T14:51:40;6.25;;;3.70;;
11315;SDS011;5713;50.774;0.256;2022-07-23T14:54:07;6.45;;;3.60;;
11315;SDS011;5713;50.774;0.256;2022-07-23T14:56:33;7.57;;;3.30;;
11315;SDS011;5713;50.774;0.256;2022-07-23T14:59:01;5.05;;;2.80;;
11315;SDS011;5713;50.774;0.256;2022-07-23T15:01:27;5.75;;;3.10;;
11315;SDS011;5713;50.774;0.256;2022-07-23T15:03:54;5.65;;;3.00;;
11315;SDS011;5713;50.774;0.256;2022-07-23T15:06:20;6.95;;;3.10;;
11315;SDS011;5713;50.774;0.256;2022-07-23T15:08:46;5.55;;;2.85;;
11315;SDS011;5713;50.774;0.256;2022-07-23T15:11:12;5.13;;;2.83;;
11315;SDS011;5713;50.774;0.256;2022-07-23T15:13:38;4.68;;;2.70;;
11315;SDS011;5713;50.774;0.256;2022-07-23T15:16:05;3.80;;;2.40;;
11315;SDS011;5713;50.774;0.256;2022-07-23T15:18:31;4.10;;;2.60;;
11315;SDS011;5713;50.774;0.256;2022-07-23T15:20:57;4.38;;;2.67;;
11315;SDS011;5713;50.774;0.256;2022-07-23T15:23:24;4.53;;;2.50;;
11315;SDS011;5713;50.774;0.256;2022-07-23T15:25:50;6.22;;;2.55;;
11315;SDS011;5713;50.774;0.256;2022-07-23T15:28:16;3.50;;;2.30;;
11315;SDS011;5713;50.774;0.256;2022-07-23T15:30:42;4.20;;;2.45;;
11315;SDS011;5713;50.774;0.256;2022-07-23T15:33:08;4.13;;;2.20;;
11315;SDS011;5713;50.774;0.256;2022-07-23T15:35:34;3.70;;;2.42;;
11315;SDS011;5713;50.774;0.256;2022-07-23T15:38:01;3.47;;;2.13;;
11315;SDS011;5713;50.774;0.256;2022-07-23T15:40:27;4.03;;;2.10;;
11315;SDS011;5713;50.774;0.256;2022-07-23T15:42:53;4.07;;;2.38;;
11315;SDS011;5713;50.774;0.256;2022-07-23T15:45:19;5.00;;;2.35;;